עמוד ראשי
METAR-TAF:

METAR-TAF

שדות תעופה :

אסואן, מצרים

קו רוחב: 23-58N, קו אורך: 032-47E, גובה: 200מטר

תצפית מזג אוויר נוכחית

הדו"ח נערך לפני 40דקות, בשעה 22:00 UTC
רוח רגועה
טמפרטורת 34 צלסיוס
לחות 12%
לחץ 1004 hPa
ראות 10 קילומטר או יותר
ללא עננים שבסיסם נמוך מ 5000 רגל או קומולונימבוס

METAR: HESN 252200Z 00000KT CAVOK 34/01 Q1004 NOSIG

זמן: 00:40 (22:40 UTC)

תחזית

הדו"ח נערך לפני 5 שעות ו 40דקות, בשעה 17:00 UTC
תחזית בתוקף מ 25 ב 18 UTC עד 26 ב 24 UTC
רוח 10קשר מכיוון צפון/צפון-מערב
ראות 10 קילומטר או יותר
ללא עננים שבסיסם נמוך מ 5000 רגל או קומולונימבוס

TAF: HESN 251700Z 2518/2624 34010KT CAVOK

תצפיות ותחזיות מזג אוויר לגבי יותר מ- 4,000 שדות תעופה ברחבי העולם. דוחות METAR ו- TAF.

התחנות הזמינות מסומנות בנקודות צהובות ואדומות על גבי המפה.

העבר את העכבר לנקודה הצבעונית על מנת לראות את שם התחנה.

לאחר מכן, לחץ כדי לראות את תוכן ואת תחזיות מזג האוויר.

כדי לשנות את המפה: לחץ על הכפתורים הירוקים עם הפלוס השחור כדי להתקרב; על הכפתור הירוק עם המקף כדי להתרחק; או בחיצים הירוקים למפות סמוכות.


METAR-TAF: